Time;durP1;ratioP1;P1;durP2;ratioP2;P2;SDS_P1;SDS_P2;PMS_P1;PMS_P2;Temp;Humidity;BMP_temperature;BMP_pressure;BME280_temperature;BME280_humidity;BME280_pressure;Samples;Min_cycle;Max_cycle;Signal;HPM_P1;HPM_P2
2023/07/01 00:01:49;;;;;;;4.47;1.73;;;;;;;14.22;76.26;100135.59;4916634;29;19922;-77
2023/07/01 00:04:53;;;;;;;4.03;1.80;;;;;;;14.35;75.99;100128.47;4905108;29;20058;-76
2023/07/01 00:07:58;;;;;;;4.93;1.90;;;;;;;14.14;76.46;100118.63;4916649;29;20407;-76
2023/07/01 00:11:02;;;;;;;4.10;1.55;;;;;;;14.15;77.35;100124.69;4916507;29;20135;-76
2023/07/01 00:14:05;;;;;;;5.70;1.48;;;;;;;14.10;77.00;100124.19;4904971;29;20055;-77
2023/07/01 00:17:11;;;;;;;4.78;2.17;;;;;;;13.98;77.15;100112.81;4916672;29;20043;-76
2023/07/01 00:20:26;;;;;;;3.40;1.55;;;;;;;13.93;77.39;100113.13;4920356;29;20047;-76
2023/07/01 00:23:32;;;;;;;7.15;2.22;;;;;;;13.95;77.76;100113.84;4920609;29;20092;-77
2023/07/01 00:26:36;;;;;;;3.25;1.75;;;;;;;13.91;78.00;100111.53;4920369;29;20051;-77
2023/07/01 00:29:39;;;;;;;5.05;1.73;;;;;;;14.03;77.56;100108.03;4920434;29;20050;-77
2023/07/01 00:32:43;;;;;;;6.70;2.10;;;;;;;14.09;77.41;100112.84;4920226;29;20123;-77
2023/07/01 00:35:46;;;;;;;4.35;1.60;;;;;;;14.06;77.97;100105.19;4920178;29;20055;-76
2023/07/01 00:38:50;;;;;;;6.38;2.30;;;;;;;14.07;78.41;100101.63;4920017;29;20104;-76
2023/07/01 00:41:56;;;;;;;4.82;1.90;;;;;;;14.04;78.98;100099.22;4908279;29;20108;-76
2023/07/01 00:45:04;;;;;;;4.63;1.63;;;;;;;14.08;78.82;100098.03;4920189;29;20084;-76
2023/07/01 00:48:21;;;;;;;4.00;2.00;;;;;;;14.04;79.19;100091.31;4908227;29;20090;-76
2023/07/01 00:51:24;;;;;;;5.13;2.30;;;;;;;14.13;78.75;100082.72;4907838;29;20059;-76
2023/07/01 00:54:29;;;;;;;4.15;1.55;;;;;;;14.24;78.52;100083.75;4919720;29;20095;-76
2023/07/01 00:57:33;;;;;;;4.75;1.67;;;;;;;14.19;78.45;100082.28;4908209;29;20055;-76
2023/07/01 01:00:37;;;;;;;4.05;1.92;;;;;;;14.14;78.91;100073.09;4919686;29;20153;-76
2023/07/01 01:03:42;;;;;;;5.40;2.10;;;;;;;14.11;79.16;100082.03;4919634;29;20460;-76
2023/07/01 01:07:03;;;;;;;3.50;2.10;;;;;;;14.09;79.36;100068.16;4908029;29;20555;-77
2023/07/01 01:10:14;;;;;;;3.33;2.03;;;;;;;14.18;79.01;100072.72;4907889;29;20098;-77
2023/07/01 01:13:29;;;;;;;4.00;2.00;;;;;;;14.18;79.04;100064.84;4919471;29;20083;-77
2023/07/01 01:16:33;;;;;;;3.28;2.03;;;;;;;14.12;79.41;100062.66;4907899;29;20134;-77
2023/07/01 01:19:40;;;;;;;7.68;2.03;;;;;;;14.18;79.31;100064.00;4907756;29;20047;-77
2023/07/01 01:23:07;;;;;;;6.07;2.05;;;;;;;14.12;79.23;100062.66;4907641;29;20524;-77
2023/07/01 01:26:18;;;;;;;4.72;2.60;;;;;;;14.15;78.63;100056.34;4919507;29;20119;-77
2023/07/01 01:29:22;;;;;;;5.70;2.15;;;;;;;14.06;78.70;100049.13;4919189;29;20099;-77
2023/07/01 01:32:26;;;;;;;5.93;2.08;;;;;;;14.08;78.98;100055.13;4896895;29;20082;-77
2023/07/01 01:35:38;;;;;;;4.65;1.83;;;;;;;14.03;78.58;100046.72;4919166;29;20078;-77
2023/07/01 01:38:41;;;;;;;6.45;2.20;;;;;;;14.02;78.88;100045.91;4907227;29;20119;-77
2023/07/01 01:41:57;;;;;;;3.78;2.00;;;;;;;14.00;78.96;100042.53;4907085;29;20047;-77
2023/07/01 01:45:03;;;;;;;4.78;1.75;;;;;;;14.05;79.01;100043.03;4919216;29;20058;-77
2023/07/01 01:48:10;;;;;;;3.95;1.95;;;;;;;14.10;78.68;100040.94;4896415;29;20055;-77
2023/07/01 01:51:16;;;;;;;3.38;1.85;;;;;;;14.05;78.45;100043.03;4896035;29;20071;-76
2023/07/01 01:54:24;;;;;;;3.47;1.70;;;;;;;14.02;79.16;100042.44;4918755;29;20055;-77
2023/07/01 01:57:32;;;;;;;6.93;2.08;;;;;;;14.01;78.83;100038.97;4907103;29;20112;-77
2023/07/01 02:00:36;;;;;;;3.50;1.63;;;;;;;14.07;78.47;100033.28;4907292;29;20051;-77
2023/07/01 02:03:51;;;;;;;5.53;2.00;;;;;;;14.05;78.62;100029.91;4918726;29;20054;-77
2023/07/01 02:06:55;;;;;;;4.88;2.08;;;;;;;14.02;79.01;100022.25;4918811;29;20158;-76
2023/07/01 02:09:59;;;;;;;3.72;2.22;;;;;;;14.02;78.88;100024.03;4918486;29;20066;-76
2023/07/01 02:13:03;;;;;;;3.70;1.88;;;;;;;14.05;78.87;100015.94;4906999;29;20059;-76
2023/07/01 02:16:07;;;;;;;4.20;1.98;;;;;;;14.01;79.03;100004.81;4906716;29;20422;-77
2023/07/01 02:19:14;;;;;;;6.32;1.90;;;;;;;13.98;79.66;100015.56;4918201;29;20099;-77
2023/07/01 02:22:18;;;;;;;4.88;1.80;;;;;;;13.99;79.63;100004.06;4918460;29;20107;-77
2023/07/01 02:25:22;;;;;;;9.25;2.25;;;;;;;14.03;79.56;100008.13;4918367;29;20071;-76
2023/07/01 02:28:25;;;;;;;5.95;2.08;;;;;;;14.08;79.58;100003.38;4905647;29;20046;-76
2023/07/01 02:31:29;;;;;;;3.92;1.98;;;;;;;14.06;78.91;100005.28;4895268;29;20525;-76
2023/07/01 02:34:37;;;;;;;3.63;2.15;;;;;;;14.06;78.83;99999.19;4906703;29;20107;-76
2023/07/01 02:37:44;;;;;;;8.63;1.85;;;;;;;14.08;78.61;99998.13;4906021;29;20067;-77
2023/07/01 02:40:48;;;;;;;4.75;1.92;;;;;;;14.05;78.91;99995.72;4905847;29;20080;-76
2023/07/01 02:43:51;;;;;;;3.53;1.70;;;;;;;14.05;79.22;99995.72;4917751;29;20323;-76
2023/07/01 02:46:56;;;;;;;4.90;1.88;;;;;;;14.05;79.46;99992.25;4905909;29;20184;-76
2023/07/01 02:50:00;;;;;;;3.65;1.50;;;;;;;14.06;79.88;99989.50;4917731;29;20099;-75
2023/07/01 02:53:04;;;;;;;4.43;2.05;;;;;;;14.03;80.12;99987.09;4887217;29;20063;-76
2023/07/01 02:56:07;;;;;;;;;;;;;;;14.08;79.60;99992.88;4887732;29;20112;-75
2023/07/01 02:59:11;;;;;;;6.72;1.70;;;;;;;14.09;79.57;99984.03;4898769;29;20353;-75
2023/07/01 03:02:15;;;;;;;4.20;1.92;;;;;;;14.13;79.10;99974.94;4887240;29;20059;-75
2023/07/01 03:05:23;;;;;;;4.20;1.80;;;;;;;14.08;78.99;99984.16;4898621;29;20182;-75
2023/07/01 03:08:26;;;;;;;3.90;1.80;;;;;;;14.06;79.29;99986.03;4887148;29;20090;-76
2023/07/01 03:11:29;;;;;;;;;;;;;;;14.05;79.41;99989.63;4898950;29;20046;-75
2023/07/01 03:14:33;;;;;;;3.67;1.90;;;;;;;14.08;78.98;99976.25;4886899;29;19926;-76
2023/07/01 03:17:36;;;;;;;4.35;2.00;;;;;;;14.10;78.94;99976.97;4898298;29;20047;-76
2023/07/01 03:20:40;;;;;;;4.10;1.80;;;;;;;14.10;79.34;99975.19;4898302;29;20043;-75
2023/07/01 03:23:42;;;;;;;;;;;;;;;14.11;79.42;99978.66;4898400;29;20115;-76
2023/07/01 03:26:46;;;;;;;4.07;1.83;;;;;;;14.12;79.45;99972.44;4898310;29;19923;-76
2023/07/01 03:29:49;;;;;;;7.57;1.77;;;;;;;14.11;79.59;99966.34;4886586;29;20055;-76
2023/07/01 03:32:52;;;;;;;6.68;2.58;;;;;;;14.12;79.41;99968.00;4898183;29;20048;-76
2023/07/01 03:35:55;;;;;;;5.50;2.20;;;;;;;14.13;79.12;99972.31;4898135;29;20092;-76
2023/07/01 03:39:00;;;;;;;3.75;1.90;;;;;;;14.12;79.22;99968.00;4897930;29;20048;-76
2023/07/01 03:42:03;;;;;;;7.60;2.25;;;;;;;14.15;79.41;99959.06;4898002;29;20052;-76
2023/07/01 03:45:09;;;;;;;4.88;1.70;;;;;;;14.15;79.88;99962.53;4898010;29;20082;-76
2023/07/01 03:48:12;;;;;;;3.63;1.50;;;;;;;14.21;79.52;99960.41;4898122;29;20135;-76
2023/07/01 03:51:16;;;;;;;4.32;1.98;;;;;;;14.22;79.53;99955.00;4890887;29;20074;-76
2023/07/01 03:54:19;;;;;;;3.35;1.70;;;;;;;14.19;79.66;99953.44;4916668;29;20144;-76
2023/07/01 03:57:23;;;;;;;3.65;1.70;;;;;;;14.14;79.89;99950.34;4914976;29;20127;-76
2023/07/01 04:00:27;;;;;;;3.13;1.88;;;;;;;14.16;79.77;99942.31;4914846;29;20108;-76
2023/07/01 04:03:33;;;;;;;3.75;1.85;;;;;;;14.22;79.76;99941.03;4914773;29;20055;-76
2023/07/01 04:06:36;;;;;;;4.85;1.75;;;;;;;14.23;79.71;99934.81;4915123;29;20094;-76
2023/07/01 04:09:39;;;;;;;3.75;1.80;;;;;;;14.22;79.57;99935.75;4915095;29;20047;-76
2023/07/01 04:12:43;;;;;;;5.55;1.75;;;;;;;14.21;79.77;99934.94;4904890;29;20079;-76
2023/07/01 04:15:46;;;;;;;9.10;2.65;;;;;;;14.28;79.97;99937.94;4916507;29;20068;-76
2023/07/01 04:18:50;;;;;;;3.65;2.05;;;;;;;14.22;80.41;99930.50;4916426;29;20103;-76
2023/07/01 04:21:53;;;;;;;4.15;1.65;;;;;;;14.26;80.33;99926.69;4916550;29;20135;-76
2023/07/01 04:24:57;;;;;;;2.72;1.67;;;;;;;14.33;79.79;99923.47;4916581;29;20043;-76
2023/07/01 04:28:01;;;;;;;5.75;1.92;;;;;;;14.45;79.64;99910.31;4916436;29;20099;-77
2023/07/01 04:31:07;;;;;;;3.55;1.90;;;;;;;14.54;79.19;99915.72;4916428;29;20047;-75
2023/07/01 04:34:10;;;;;;;4.63;1.85;;;;;;;14.50;78.86;99911.63;4904544;29;20073;-75
2023/07/01 04:37:14;;;;;;;5.75;2.15;;;;;;;14.43;78.91;99915.69;4916146;29;20054;-75
2023/07/01 04:40:17;;;;;;;;;;;;;;;14.42;79.03;99906.13;4916742;29;20051;-75
2023/07/01 04:43:20;;;;;;;7.88;2.00;;;;;;;14.46;79.85;99907.56;4916332;29;20285;-75
2023/07/01 04:46:24;;;;;;;4.85;2.55;;;;;;;14.47;79.40;99911.03;4916244;29;20063;-75
2023/07/01 04:49:27;;;;;;;4.70;2.00;;;;;;;14.49;79.38;99906.50;4916225;29;20055;-75
2023/07/01 04:52:30;;;;;;;3.60;1.70;;;;;;;14.48;80.13;99912.69;4916028;29;20096;-75
2023/07/01 04:55:33;;;;;;;4.90;2.85;;;;;;;14.58;80.07;99911.03;4916253;29;20132;-76
2023/07/01 04:58:36;;;;;;;3.97;1.98;;;;;;;14.63;79.69;99915.00;4916008;29;20132;-76
2023/07/01 05:01:40;;;;;;;5.38;2.13;;;;;;;14.49;80.77;99912.59;4916089;29;20055;-69
2023/07/01 05:04:44;;;;;;;6.20;2.53;;;;;;;14.56;80.77;99903.28;4917860;29;20042;-69
2023/07/01 05:07:47;;;;;;;3.70;2.03;;;;;;;14.67;80.58;99896.34;4918257;29;20110;-69
2023/07/01 05:10:50;;;;;;;3.75;1.77;;;;;;;14.70;80.10;99894.28;4919827;29;20509;-69
2023/07/01 05:13:54;;;;;;;3.60;1.98;;;;;;;14.58;81.28;99895.25;4907960;29;20051;-69
2023/07/01 05:16:58;;;;;;;4.10;2.05;;;;;;;14.71;80.15;99898.63;4919562;29;20055;-69
2023/07/01 05:20:02;;;;;;;7.55;2.00;;;;;;;14.79;79.57;99892.72;4907996;29;20525;-69
2023/07/01 05:23:05;;;;;;;3.97;2.10;;;;;;;14.67;80.68;99889.28;4919444;29;20043;-69
2023/07/01 05:26:09;;;;;;;4.18;1.80;;;;;;;14.93;79.53;99884.56;4919580;29;20050;-69
2023/07/01 05:29:13;;;;;;;3.55;1.80;;;;;;;15.10;78.61;99886.69;4919455;29;20078;-69
2023/07/01 05:32:16;;;;;;;4.50;2.28;;;;;;;15.14;78.42;99876.72;4919200;29;20055;-69
2023/07/01 05:35:20;;;;;;;6.32;1.73;;;;;;;15.05;79.37;99875.66;4919441;29;20590;-69
2023/07/01 05:38:23;;;;;;;3.85;1.90;;;;;;;15.08;79.67;99870.16;4907142;29;20463;-69
2023/07/01 05:41:26;;;;;;;3.20;1.80;;;;;;;15.22;78.89;99876.09;4919031;29;20042;-69
2023/07/01 05:44:30;;;;;;;4.53;1.60;;;;;;;15.30;78.51;99876.31;4919270;29;20079;-69
2023/07/01 05:47:33;;;;;;;4.35;2.13;;;;;;;15.32;79.12;99867.31;4919127;29;20046;-70
2023/07/01 05:50:38;;;;;;;6.57;2.03;;;;;;;15.30;78.68;99868.41;4919030;29;20416;-79
2023/07/01 05:53:41;;;;;;;3.05;1.92;;;;;;;15.53;78.21;99858.59;4918411;29;20181;-76
2023/07/01 05:56:44;;;;;;;2.88;1.35;;;;;;;15.55;78.36;99854.88;4918735;29;20509;-73
2023/07/01 05:59:49;;;;;;;4.75;1.73;;;;;;;15.64;77.30;99853.25;4918729;29;20054;-74
2023/07/01 06:02:51;;;;;;;4.78;1.90;;;;;;;15.79;76.51;99845.88;4907261;29;20046;-75
2023/07/01 06:05:55;;;;;;;8.07;2.33;;;;;;;16.00;76.43;99853.78;4918574;29;20087;-75
2023/07/01 06:08:58;;;;;;;4.55;1.73;;;;;;;15.98;76.10;99847.78;4918517;29;20506;-76
2023/07/01 06:12:02;;;;;;;5.78;1.98;;;;;;;16.12;75.74;99851.91;4918739;29;20118;-75
2023/07/01 06:15:05;;;;;;;4.90;1.33;;;;;;;16.23;75.71;99849.16;4905927;29;20059;-75
2023/07/01 06:18:08;;;;;;;4.05;1.85;;;;;;;16.45;74.01;99833.13;4918272;29;20047;-75
2023/07/01 06:21:12;;;;;;;4.43;1.90;;;;;;;16.63;73.86;99832.47;4906699;29;20131;-74
2023/07/01 06:24:15;;;;;;;3.83;1.38;;;;;;;16.82;73.60;99829.06;4918547;29;20574;-75
2023/07/01 06:27:18;;;;;;;4.10;1.70;;;;;;;16.94;74.67;99823.53;4906792;29;20200;-76
2023/07/01 06:30:22;;;;;;;6.68;1.48;;;;;;;17.08;74.08;99818.81;4918172;29;20103;-77
2023/07/01 06:33:25;;;;;;;4.25;1.92;;;;;;;17.20;73.15;99822.97;4918132;29;20042;-76
2023/07/01 06:36:28;;;;;;;3.85;1.65;;;;;;;17.34;66.86;99819.88;4918198;29;20191;-77
2023/07/01 06:39:32;;;;;;;4.40;1.80;;;;;;;17.49;64.15;99808.91;4918061;29;20051;-76
2023/07/01 06:42:40;;;;;;;4.38;2.00;;;;;;;17.62;61.25;99802.31;4917955;29;20180;-76
2023/07/01 06:45:44;;;;;;;4.22;1.95;;;;;;;17.75;60.85;99798.53;4918144;29;20059;-76
2023/07/01 06:48:52;;;;;;;6.18;2.00;;;;;;;17.84;59.03;99801.19;4916288;29;20052;-77
2023/07/01 06:51:57;;;;;;;7.60;1.92;;;;;;;17.96;58.30;99801.81;4905187;29;20115;-70
2023/07/01 06:55:04;;;;;;;5.70;1.80;;;;;;;18.08;57.19;99808.59;4917339;29;20078;-76
2023/07/01 06:58:09;;;;;;;3.30;1.63;;;;;;;18.17;56.91;99809.53;4917662;29;20090;-76
2023/07/01 07:01:13;;;;;;;10.45;2.42;;;;;;;18.15;56.21;99803.53;4917917;29;20059;-75
2023/07/01 07:04:19;;;;;;;5.25;2.30;;;;;;;18.27;55.77;99802.38;4905948;29;20573;-74
2023/07/01 07:07:23;;;;;;;6.93;1.98;;;;;;;18.36;56.14;99790.91;4906061;29;20072;-77
2023/07/01 07:10:26;;;;;;;6.32;2.40;;;;;;;18.48;55.76;99806.59;4905821;29;20043;-73
2023/07/01 07:13:30;;;;;;;7.43;2.15;;;;;;;18.57;54.95;99792.47;4905981;29;20463;-77
2023/07/01 07:16:37;;;;;;;4.10;1.95;;;;;;;18.62;55.05;99784.06;4917314;29;20524;-79
2023/07/01 07:19:41;;;;;;;6.57;1.73;;;;;;;18.58;55.22;99786.19;4917414;29;20071;-78
2023/07/01 07:22:45;;;;;;;5.28;2.08;;;;;;;18.58;55.09;99791.47;4917658;29;20107;-80
2023/07/01 07:25:49;;;;;;;6.78;1.83;;;;;;;18.59;54.92;99788.66;4917452;29;20059;-76
2023/07/01 07:28:53;;;;;;;8.32;1.65;;;;;;;18.71;54.69;99778.69;4916998;29;20083;-76
2023/07/01 07:31:57;;;;;;;6.18;1.65;;;;;;;18.68;54.85;99784.28;4917625;29;20046;-76
2023/07/01 07:35:00;;;;;;;4.07;1.77;;;;;;;18.77;54.94;99778.13;4905832;29;20055;-75
2023/07/01 07:38:03;;;;;;;4.03;1.90;;;;;;;18.97;54.76;99781.44;4916915;29;20078;-77
2023/07/01 07:41:07;;;;;;;6.72;2.20;;;;;;;19.08;54.67;99785.69;4905159;29;20046;-77
2023/07/01 07:44:10;;;;;;;6.50;1.83;;;;;;;19.08;54.86;99796.28;4917092;29;20094;-77
2023/07/01 07:47:14;;;;;;;4.38;1.55;;;;;;;19.01;54.88;99800.50;4916895;29;20046;-76
2023/07/01 07:50:21;;;;;;;4.15;1.85;;;;;;;19.02;55.04;99791.59;4916851;29;20525;-74
2023/07/01 07:53:25;;;;;;;5.15;2.15;;;;;;;19.01;55.27;99795.22;4916349;29;20489;-76
2023/07/01 07:56:29;;;;;;;6.50;1.92;;;;;;;19.14;55.71;99790.34;4915473;29;20477;-76
2023/07/01 07:59:32;;;;;;;4.05;1.60;;;;;;;19.06;55.43;99777.06;4915563;29;20054;-75
2023/07/01 08:02:42;;;;;;;7.82;2.03;;;;;;;19.07;55.63;99789.31;4916316;29;20080;-75
2023/07/01 08:05:45;;;;;;;6.32;2.10;;;;;;;19.23;55.71;99783.31;4916324;29;20095;-76
2023/07/01 08:08:48;;;;;;;10.27;1.70;;;;;;;19.17;56.10;99783.91;4916396;29;20199;-76
2023/07/01 08:11:52;;;;;;;6.78;2.03;;;;;;;19.09;56.67;99782.06;4916822;29;20418;-76
2023/07/01 08:14:56;;;;;;;7.22;1.85;;;;;;;19.14;56.29;99774.44;4916390;29;20047;-76
2023/07/01 08:17:59;;;;;;;6.65;1.73;;;;;;;19.23;56.28;99783.31;4914604;29;20047;-76
2023/07/01 08:21:03;;;;;;;5.65;1.50;;;;;;;19.05;58.29;99783.34;4915593;29;20051;-76
2023/07/01 08:24:10;;;;;;;6.00;2.00;;;;;;;19.05;61.06;99781.53;4915497;29;20055;-76
2023/07/01 08:27:14;;;;;;;7.50;1.83;;;;;;;19.03;62.74;99778.19;4916701;29;20047;-75
2023/07/01 08:30:17;;;;;;;3.38;1.38;;;;;;;19.05;62.73;99770.09;4916662;29;20068;-75
2023/07/01 08:33:21;;;;;;;5.72;1.58;;;;;;;18.85;62.55;99771.22;4904201;29;20054;-75
2023/07/01 08:36:26;;;;;;;3.85;1.40;;;;;;;18.98;62.95;99769.03;4914735;29;20145;-76
2023/07/01 08:39:30;;;;;;;7.38;1.40;;;;;;;19.13;62.85;99766.66;4918130;29;20516;-75
2023/07/01 08:42:50;;;;;;;3.15;1.50;;;;;;;19.17;62.93;99773.31;4919527;29;20086;-76
2023/07/01 08:46:01;;;;;;;2.83;1.10;;;;;;;19.04;63.29;99768.41;4919845;29;20111;-76
2023/07/01 08:49:04;;;;;;;4.90;1.30;;;;;;;19.12;63.54;99767.66;4908380;29;20516;-76
2023/07/01 08:52:11;;;;;;;4.20;1.20;;;;;;;18.96;64.44;99779.78;4918980;29;20064;-76
2023/07/01 08:55:15;;;;;;;5.15;1.45;;;;;;;18.89;64.57;99785.81;4911903;29;20120;-76
2023/07/01 08:58:19;;;;;;;3.38;0.90;;;;;;;18.90;65.07;99774.28;4899019;29;20103;-76
2023/07/01 09:01:22;;;;;;;5.18;0.88;;;;;;;18.89;65.40;99775.22;4898263;29;20092;-76
2023/07/01 09:04:27;;;;;;;11.02;2.17;;;;;;;19.02;65.06;99765.09;4899396;29;20048;-76
2023/07/01 09:07:30;;;;;;;3.10;0.88;;;;;;;19.01;64.71;99766.06;4899746;29;20435;-76
2023/07/01 09:10:34;;;;;;;2.42;0.95;;;;;;;19.01;64.50;99763.41;4899524;29;20096;-76
2023/07/01 09:13:38;;;;;;;2.78;0.93;;;;;;;19.08;63.79;99767.16;4899775;29;20115;-76
2023/07/01 09:16:41;;;;;;;7.05;1.35;;;;;;;19.07;63.90;99768.13;4899474;29;20081;-77
2023/07/01 09:19:51;;;;;;;5.30;1.10;;;;;;;19.15;64.17;99760.25;4899607;29;20565;-77
2023/07/01 09:22:59;;;;;;;2.97;0.80;;;;;;;19.12;64.52;99780.91;4899317;29;20096;-77
2023/07/01 09:26:13;;;;;;;3.28;0.90;;;;;;;18.97;64.90;99772.66;4898917;29;20075;-77
2023/07/01 09:29:18;;;;;;;2.13;0.95;;;;;;;18.90;65.27;99761.03;4899349;29;20043;-78
2023/07/01 09:32:34;;;;;;;2.08;0.60;;;;;;;18.85;65.78;99768.59;4899546;29;20189;-77
2023/07/01 09:39:41;;;;;;;2.50;0.93;;;;;;;18.65;68.30;99779.28;4898258;29;20418;-78
2023/07/01 09:42:55;;;;;;;4.05;0.93;;;;;;;18.60;69.64;99765.66;4899065;29;20044;-77
2023/07/01 09:45:58;;;;;;;3.45;1.00;;;;;;;18.46;70.30;99769.66;4898579;29;20044;-77
2023/07/01 09:49:02;;;;;;;4.15;1.02;;;;;;;18.36;70.59;99767.09;4898700;29;20048;-77
2023/07/01 09:52:09;;;;;;;4.28;1.10;;;;;;;18.34;72.30;99765.56;4853667;29;1343469;-76
2023/07/01 09:55:17;;;;;;;2.53;1.10;;;;;;;18.25;74.14;99767.31;4900236;29;20502;-77
2023/07/01 09:58:20;;;;;;;2.17;0.90;;;;;;;18.19;75.74;99773.19;4898968;29;20099;-77
2023/07/01 10:01:25;;;;;;;2.50;0.98;;;;;;;18.12;77.13;99772.06;4899282;29;20056;-77
2023/07/01 10:04:30;;;;;;;3.65;1.25;;;;;;;18.19;78.88;99773.19;4899082;29;20185;-77
2023/07/01 10:07:35;;;;;;;4.97;1.30;;;;;;;18.39;77.46;99773.06;4898954;29;20055;-75
2023/07/01 10:10:40;;;;;;;2.42;1.10;;;;;;;18.27;79.39;99765.31;4899262;29;20056;-78
2023/07/01 10:13:50;;;;;;;3.20;1.08;;;;;;;18.32;77.94;99764.88;4899753;29;20043;-76
2023/07/01 10:16:54;;;;;;;7.57;1.65;;;;;;;18.29;79.48;99763.38;4899506;29;20057;-79
2023/07/01 10:19:58;;;;;;;3.53;1.20;;;;;;;18.31;80.19;99756.13;4887949;29;20174;-78
2023/07/01 10:23:03;;;;;;;4.50;1.20;;;;;;;18.33;79.95;99759.44;4899407;29;20050;-77
2023/07/01 10:26:46;;;;;;;5.13;1.52;;;;;;;18.33;79.17;99764.72;4899681;29;20139;-80
2023/07/01 10:29:56;;;;;;;3.05;1.30;;;;;;;18.35;78.84;99761.94;4887720;29;20407;-76
2023/07/01 10:33:00;;;;;;;3.85;1.33;;;;;;;18.41;78.83;99755.19;4899615;29;20426;-74
2023/07/01 10:36:08;;;;;;;4.03;1.67;;;;;;;18.24;78.76;99755.03;4899176;29;20043;-75
2023/07/01 10:39:33;;;;;;;4.57;2.03;;;;;;;18.22;78.81;99757.00;4899174;29;20043;-76
2023/07/01 10:42:37;;;;;;;3.53;1.30;;;;;;;18.30;79.14;99756.25;4899272;29;20047;-75
2023/07/01 10:45:41;;;;;;;3.30;1.05;;;;;;;18.21;79.59;99760.63;4898999;29;20182;-75
2023/07/01 10:49:04;;;;;;;4.00;1.40;;;;;;;18.33;79.09;99756.78;4899028;29;20047;-78
2023/07/01 10:52:11;;;;;;;3.17;1.20;;;;;;;18.38;79.34;99768.72;4875933;29;20147;-78
2023/07/01 10:55:36;;;;;;;4.22;1.77;;;;;;;18.22;78.31;99766.75;4879810;29;20097;-76
2023/07/01 10:58:40;;;;;;;2.85;1.30;;;;;;;18.24;78.35;99760.31;4880081;29;20188;-77
2023/07/01 11:01:45;;;;;;;2.20;1.27;;;;;;;18.25;79.60;99756.72;4879579;29;20096;-73
2023/07/01 11:05:08;;;;;;;2.80;1.40;;;;;;;18.25;77.57;99756.72;4868857;29;20473;-74
2023/07/01 11:08:12;;;;;;;3.42;1.73;;;;;;;18.20;78.27;99760.78;4868324;29;20043;-75
2023/07/01 11:11:24;;;;;;;3.67;1.45;;;;;;;18.24;77.32;99760.31;4879930;29;20104;-76
2023/07/01 11:18:42;;;;;;;4.35;1.20;;;;;;;18.33;77.08;99754.16;4896367;29;20044;-76
2023/07/01 11:21:46;;;;;;;2.80;1.52;;;;;;;18.42;76.38;99751.59;4898175;29;20096;-75
2023/07/01 11:24:50;;;;;;;2.95;1.38;;;;;;;18.43;77.27;99747.97;4896135;29;20418;-77
2023/07/01 11:27:53;;;;;;;5.00;1.63;;;;;;;18.49;76.02;99737.59;4896461;29;20399;-74
2023/07/01 11:31:16;;;;;;;2.92;1.55;;;;;;;18.43;76.32;99737.38;4896681;29;20086;-73
2023/07/01 11:34:19;;;;;;;3.75;1.75;;;;;;;18.40;76.53;99737.66;4896697;29;20443;-75
2023/07/01 11:37:24;;;;;;;3.38;1.83;;;;;;;18.53;76.84;99738.97;4896171;29;20059;-75
2023/07/01 11:40:39;;;;;;;4.85;1.60;;;;;;;18.61;76.00;99730.28;4895193;29;20060;-72
2023/07/01 11:43:42;;;;;;;5.55;1.67;;;;;;;18.59;76.04;99738.34;4896296;29;20043;-70
2023/07/01 11:46:46;;;;;;;3.47;1.90;;;;;;;18.80;75.40;99724.03;4897244;29;20059;-75
2023/07/01 11:49:49;;;;;;;3.17;1.80;;;;;;;18.83;75.07;99720.25;4897373;29;20052;-79
2023/07/01 11:53:05;;;;;;;3.15;1.73;;;;;;;18.90;75.45;99719.47;4914451;29;20116;-78
2023/07/01 11:56:17;;;;;;;3.95;1.90;;;;;;;19.04;74.88;99718.06;4916682;29;20055;-79
2023/07/01 11:59:32;;;;;;;4.28;2.17;;;;;;;19.03;74.63;99719.91;4916671;29;20104;-80
2023/07/01 12:02:36;;;;;;;5.30;1.70;;;;;;;19.02;74.50;99720.91;4916675;29;20051;-79
2023/07/01 12:05:43;;;;;;;4.53;2.10;;;;;;;19.09;74.53;99712.34;4916509;29;20557;-76
2023/07/01 12:08:55;;;;;;;9.90;2.13;;;;;;;19.10;75.00;99719.28;4916502;29;20167;-79
2023/07/01 12:11:58;;;;;;;2.58;1.73;;;;;;;19.01;77.00;99711.25;4904633;29;20475;-84
2023/07/01 12:15:09;;;;;;;2.42;1.50;;;;;;;18.90;75.56;99723.94;4916264;29;20051;-87
2023/07/01 12:18:30;;;;;;;4.30;2.20;;;;;;;18.91;77.47;99722.94;4904482;29;20414;-77
2023/07/01 12:21:33;;;;;;;3.33;1.90;;;;;;;18.69;78.00;99721.56;4904591;29;20473;-77
2023/07/01 12:24:36;;;;;;;4.07;1.83;;;;;;;18.95;78.29;99726.94;4915887;29;20087;-77
2023/07/01 12:27:40;;;;;;;4.50;2.13;;;;;;;19.00;78.83;99724.69;4915996;29;20050;-76
2023/07/01 12:30:43;;;;;;;4.82;2.13;;;;;;;18.85;79.64;99732.31;4916136;29;20512;-76
2023/07/01 12:33:46;;;;;;;3.95;2.13;;;;;;;18.81;80.84;99723.84;4916056;29;20115;-76
2023/07/01 12:36:50;;;;;;;2.97;2.03;;;;;;;18.93;82.46;99718.34;4916322;29;20452;-78
2023/07/01 12:39:54;;;;;;;4.88;2.10;;;;;;;19.14;81.48;99718.81;4916354;29;20051;-78
2023/07/01 12:42:58;;;;;;;3.50;2.13;;;;;;;18.87;83.50;99713.66;4916309;29;20059;-75
2023/07/01 12:46:01;;;;;;;3.20;2.05;;;;;;;19.02;84.01;99718.25;4916317;29;20094;-71
2023/07/01 12:49:05;;;;;;;4.75;2.03;;;;;;;19.04;84.95;99721.56;4916306;29;20042;-72
2023/07/01 12:52:10;;;;;;;3.13;1.95;;;;;;;19.12;83.47;99719.97;4915938;29;20055;-77
2023/07/01 12:55:13;;;;;;;3.15;1.67;;;;;;;19.08;85.80;99716.81;4916514;29;20509;-76
2023/07/01 12:58:17;;;;;;;3.33;1.67;;;;;;;19.01;84.28;99715.72;4916111;29;20056;-78
2023/07/01 13:01:20;;;;;;;4.80;1.70;;;;;;;19.13;84.04;99719.81;4916194;29;20047;-73
2023/07/01 13:04:25;;;;;;;3.65;2.28;;;;;;;18.99;83.29;99710.59;4916294;29;20092;-78
2023/07/01 13:07:31;;;;;;;3.10;1.80;;;;;;;19.14;83.60;99716.16;4916089;29;20043;-78
2023/07/01 13:10:43;;;;;;;4.90;2.00;;;;;;;19.12;85.48;99712.03;4916149;29;20188;-78
2023/07/01 13:13:50;;;;;;;3.08;1.73;;;;;;;18.84;84.96;99708.66;4916255;29;20462;-78
2023/07/01 13:16:54;;;;;;;4.65;2.05;;;;;;;18.95;85.19;99703.09;4904368;29;20100;-77
2023/07/01 13:19:58;;;;;;;4.05;2.20;;;;;;;18.83;83.52;99707.00;4916377;29;20569;-79
2023/07/01 13:23:01;;;;;;;2.63;1.60;;;;;;;18.87;82.67;99703.88;4916252;29;20086;-77
2023/07/01 13:26:05;;;;;;;4.30;2.50;;;;;;;19.02;82.75;99701.53;4917922;29;20043;-77
2023/07/01 13:29:19;;;;;;;3.97;2.45;;;;;;;19.18;81.78;99700.81;4919426;29;20513;-77
2023/07/01 13:32:45;;;;;;;2.72;1.80;;;;;;;19.09;85.03;99699.91;4919518;29;20474;-78
2023/07/01 13:35:53;;;;;;;3.78;1.60;;;;;;;19.04;82.81;99697.72;4919093;29;20055;-81
2023/07/01 13:38:56;;;;;;;3.15;1.60;;;;;;;19.05;82.25;99695.91;4918968;29;20047;-73
2023/07/01 13:42:01;;;;;;;2.65;1.30;;;;;;;19.17;82.70;99689.34;4919017;29;20108;-75
2023/07/01 13:45:18;;;;;;;3.95;1.30;;;;;;;19.27;82.00;99689.25;4919055;29;20043;-75
2023/07/01 13:48:44;;;;;;;2.90;1.13;;;;;;;19.31;80.73;99689.78;4917758;29;20922;-75
2023/07/01 13:51:50;;;;;;;4.03;1.20;;;;;;;19.29;82.00;99693.41;4918889;29;20054;-75
2023/07/01 13:54:54;;;;;;;3.70;1.58;;;;;;;19.42;82.90;99694.81;4918945;29;20094;-75
2023/07/01 13:57:57;;;;;;;2.42;1.25;;;;;;;19.27;81.62;99690.09;4918740;29;20099;-75
2023/07/01 14:01:01;;;;;;;3.13;1.27;;;;;;;19.39;82.31;99685.34;4918854;29;20051;-75
2023/07/01 14:04:04;;;;;;;2.92;1.20;;;;;;;19.43;83.44;99680.56;4918820;29;20507;-75
2023/07/01 14:07:08;;;;;;;2.40;1.10;;;;;;;19.36;81.76;99675.06;4918597;29;20107;-74
2023/07/01 14:10:29;;;;;;;2.33;1.10;;;;;;;19.19;81.58;99675.97;4918705;29;20055;-71
2023/07/01 14:13:32;;;;;;;3.78;1.00;;;;;;;19.36;81.59;99676.88;4896111;29;20451;-74
2023/07/01 14:16:36;;;;;;;2.15;0.80;;;;;;;19.44;81.47;99679.59;4906971;29;20099;-64
2023/07/01 14:19:39;;;;;;;4.00;1.40;;;;;;;19.55;83.87;99675.81;4918753;29;20533;-64
2023/07/01 14:22:46;;;;;;;2.65;1.40;;;;;;;19.43;83.48;99677.91;4918455;29;20054;-65
2023/07/01 14:25:52;;;;;;;2.10;1.17;;;;;;;19.38;84.60;99669.59;4918350;29;20127;-68
2023/07/01 14:29:03;;;;;;;2.85;1.20;;;;;;;19.35;84.19;99680.53;4906833;29;20473;-69
2023/07/01 14:32:07;;;;;;;2.20;0.90;;;;;;;19.38;84.43;99680.22;4918500;29;20110;-70
2023/07/01 14:35:10;;;;;;;2.28;1.30;;;;;;;19.41;87.24;99677.25;4918023;29;20597;-68
2023/07/01 14:38:15;;;;;;;2.30;1.20;;;;;;;19.37;86.48;99667.94;4917952;29;20047;-69
2023/07/01 14:41:26;;;;;;;2.65;1.38;;;;;;;19.45;87.37;99668.81;4918067;29;20075;-70